Terminal Aerodrome Forecast
Issued by NWS Wakefield, VA

Home | Current Version | Previous Version | Text Only | Print | Product List | Glossary On
Versions: 1 2 3 4 5 6 7 8 9 10 11 12 13 14
000
FTUS41 KAKQ 272332
TAFSBY
TAF
KSBY 272332Z 2800/2824 07005KT P6SM SKC
     FM280900 05003KT 4SM BR SCT008
     FM281300 07009KT P6SM SCT035=

USA.gov is the U.S. government's official web portal to all federal, state and local government web resources and services.